sensor_id;sensor_type;location;lat;lon;timestamp;P1;durP1;ratioP1;P2;durP2;ratioP2
7703;SDS011;3894;49.700;10.770;2023-03-21T01:22:06;7.13;;;3.42;;
7703;SDS011;3894;49.700;10.770;2023-03-21T01:24:35;11.77;;;3.20;;
7703;SDS011;3894;49.700;10.770;2023-03-21T01:27:01;7.93;;;2.58;;
7703;SDS011;3894;49.700;10.770;2023-03-21T01:29:27;7.60;;;2.78;;
7703;SDS011;3894;49.700;10.770;2023-03-21T01:31:53;8.88;;;3.20;;
7703;SDS011;3894;49.700;10.770;2023-03-21T01:34:22;7.80;;;2.38;;
7703;SDS011;3894;49.700;10.770;2023-03-21T01:36:48;8.88;;;2.53;;
7703;SDS011;3894;49.700;10.770;2023-03-21T01:39:14;8.00;;;2.28;;
7703;SDS011;3894;49.700;10.770;2023-03-21T01:41:43;6.30;;;2.45;;
7703;SDS011;3894;49.700;10.770;2023-03-21T01:44:16;8.93;;;2.50;;
7703;SDS011;3894;49.700;10.770;2023-03-21T01:49:29;6.63;;;2.53;;
7703;SDS011;3894;49.700;10.770;2023-03-21T01:52:17;5.78;;;2.65;;
7703;SDS011;3894;49.700;10.770;2023-03-21T01:54:50;7.57;;;2.95;;
7703;SDS011;3894;49.700;10.770;2023-03-21T01:57:30;9.55;;;3.40;;
7703;SDS011;3894;49.700;10.770;2023-03-21T02:00:03;7.20;;;2.63;;
7703;SDS011;3894;49.700;10.770;2023-03-21T02:02:38;7.22;;;2.30;;
7703;SDS011;3894;49.700;10.770;2023-03-21T02:05:32;8.18;;;2.97;;
7703;SDS011;3894;49.700;10.770;2023-03-21T02:08:08;6.35;;;2.28;;
7703;SDS011;3894;49.700;10.770;2023-03-21T02:10:33;6.82;;;2.85;;
7703;SDS011;3894;49.700;10.770;2023-03-21T02:13:01;7.78;;;1.95;;
7703;SDS011;3894;49.700;10.770;2023-03-21T02:15:45;6.63;;;2.92;;
7703;SDS011;3894;49.700;10.770;2023-03-21T02:26:51;6.78;;;3.00;;
7703;SDS011;3894;49.700;10.770;2023-03-21T02:32:18;5.30;;;2.10;;
7703;SDS011;3894;49.700;10.770;2023-03-21T02:40:33;7.68;;;3.40;;
7703;SDS011;3894;49.700;10.770;2023-03-21T02:48:52;8.98;;;2.53;;
7703;SDS011;3894;49.700;10.770;2023-03-21T02:51:22;7.50;;;2.05;;
7703;SDS011;3894;49.700;10.770;2023-03-21T02:53:58;5.90;;;2.58;;
7703;SDS011;3894;49.700;10.770;2023-03-21T02:56:27;6.28;;;2.03;;
7703;SDS011;3894;49.700;10.770;2023-03-21T02:58:55;8.02;;;2.20;;
7703;SDS011;3894;49.700;10.770;2023-03-21T03:01:21;6.40;;;2.30;;
7703;SDS011;3894;49.700;10.770;2023-03-21T03:03:49;8.48;;;2.30;;
7703;SDS011;3894;49.700;10.770;2023-03-21T03:06:26;5.80;;;2.30;;
7703;SDS011;3894;49.700;10.770;2023-03-21T03:11:52;6.60;;;2.00;;
7703;SDS011;3894;49.700;10.770;2023-03-21T03:14:42;8.00;;;2.58;;
7703;SDS011;3894;49.700;10.770;2023-03-21T03:17:18;6.68;;;1.88;;
7703;SDS011;3894;49.700;10.770;2023-03-21T03:22:52;8.18;;;2.33;;
7703;SDS011;3894;49.700;10.770;2023-03-21T03:25:38;7.57;;;2.28;;
7703;SDS011;3894;49.700;10.770;2023-03-21T03:28:11;8.65;;;2.15;;
7703;SDS011;3894;49.700;10.770;2023-03-21T03:30:42;7.72;;;2.17;;
7703;SDS011;3894;49.700;10.770;2023-03-21T03:33:15;6.57;;;1.98;;
7703;SDS011;3894;49.700;10.770;2023-03-21T03:35:47;5.97;;;1.92;;
7703;SDS011;3894;49.700;10.770;2023-03-21T03:38:19;5.65;;;2.28;;
7703;SDS011;3894;49.700;10.770;2023-03-21T03:40:48;5.88;;;1.52;;
7703;SDS011;3894;49.700;10.770;2023-03-21T03:43:19;6.10;;;1.95;;
7703;SDS011;3894;49.700;10.770;2023-03-21T03:45:57;7.63;;;2.05;;
7703;SDS011;3894;49.700;10.770;2023-03-21T03:48:41;7.90;;;1.95;;
7703;SDS011;3894;49.700;10.770;2023-03-21T03:51:17;6.53;;;2.53;;
7703;SDS011;3894;49.700;10.770;2023-03-21T03:53:52;6.32;;;2.42;;
7703;SDS011;3894;49.700;10.770;2023-03-21T03:56:28;6.20;;;1.67;;
7703;SDS011;3894;49.700;10.770;2023-03-21T03:58:57;6.20;;;1.95;;
7703;SDS011;3894;49.700;10.770;2023-03-21T04:01:33;7.57;;;2.47;;
7703;SDS011;3894;49.700;10.770;2023-03-21T04:04:01;7.22;;;2.38;;
7703;SDS011;3894;49.700;10.770;2023-03-21T04:06:31;7.20;;;2.40;;
7703;SDS011;3894;49.700;10.770;2023-03-21T04:08:57;6.75;;;2.47;;
7703;SDS011;3894;49.700;10.770;2023-03-21T04:11:22;6.80;;;2.38;;
7703;SDS011;3894;49.700;10.770;2023-03-21T04:13:57;6.90;;;2.15;;
7703;SDS011;3894;49.700;10.770;2023-03-21T04:16:23;6.55;;;1.92;;
7703;SDS011;3894;49.700;10.770;2023-03-21T04:18:52;6.30;;;2.40;;
7703;SDS011;3894;49.700;10.770;2023-03-21T04:21:20;8.05;;;2.95;;
7703;SDS011;3894;49.700;10.770;2023-03-21T04:23:50;6.97;;;2.20;;
7703;SDS011;3894;49.700;10.770;2023-03-21T04:26:19;5.40;;;2.15;;
7703;SDS011;3894;49.700;10.770;2023-03-21T04:28:50;8.45;;;2.25;;
7703;SDS011;3894;49.700;10.770;2023-03-21T04:31:16;5.88;;;2.28;;
7703;SDS011;3894;49.700;10.770;2023-03-21T04:33:51;6.75;;;2.60;;
7703;SDS011;3894;49.700;10.770;2023-03-21T04:36:16;7.65;;;2.33;;
7703;SDS011;3894;49.700;10.770;2023-03-21T04:39:02;6.97;;;2.53;;
7703;SDS011;3894;49.700;10.770;2023-03-21T04:41:41;8.40;;;2.88;;
7703;SDS011;3894;49.700;10.770;2023-03-21T04:44:17;6.05;;;1.90;;
7703;SDS011;3894;49.700;10.770;2023-03-21T04:46:43;6.78;;;2.53;;
7703;SDS011;3894;49.700;10.770;2023-03-21T04:49:09;8.48;;;2.58;;
7703;SDS011;3894;49.700;10.770;2023-03-21T04:51:35;5.97;;;2.33;;
7703;SDS011;3894;49.700;10.770;2023-03-21T04:54:02;7.20;;;1.90;;
7703;SDS011;3894;49.700;10.770;2023-03-21T04:56:28;9.57;;;2.95;;
7703;SDS011;3894;49.700;10.770;2023-03-21T04:58:58;7.13;;;2.35;;
7703;SDS011;3894;49.700;10.770;2023-03-21T05:01:25;7.55;;;2.50;;
7703;SDS011;3894;49.700;10.770;2023-03-21T05:03:58;6.97;;;2.40;;
7703;SDS011;3894;49.700;10.770;2023-03-21T05:06:26;6.05;;;2.13;;
7703;SDS011;3894;49.700;10.770;2023-03-21T05:08:53;6.70;;;2.40;;
7703;SDS011;3894;49.700;10.770;2023-03-21T05:11:28;6.38;;;2.30;;
7703;SDS011;3894;49.700;10.770;2023-03-21T05:13:55;8.88;;;2.47;;
7703;SDS011;3894;49.700;10.770;2023-03-21T05:16:21;12.40;;;4.45;;
7703;SDS011;3894;49.700;10.770;2023-03-21T05:18:58;12.18;;;4.55;;
7703;SDS011;3894;49.700;10.770;2023-03-21T05:21:29;10.00;;;4.03;;
7703;SDS011;3894;49.700;10.770;2023-03-21T05:24:05;11.00;;;4.07;;
7703;SDS011;3894;49.700;10.770;2023-03-21T05:26:46;11.88;;;4.18;;
7703;SDS011;3894;49.700;10.770;2023-03-21T05:29:15;11.43;;;3.95;;
7703;SDS011;3894;49.700;10.770;2023-03-21T05:34:09;8.38;;;3.10;;
7703;SDS011;3894;49.700;10.770;2023-03-21T05:36:35;10.55;;;3.28;;
7703;SDS011;3894;49.700;10.770;2023-03-21T05:39:01;10.32;;;4.03;;
7703;SDS011;3894;49.700;10.770;2023-03-21T05:41:27;10.13;;;3.95;;
7703;SDS011;3894;49.700;10.770;2023-03-21T05:43:58;10.38;;;4.47;;
7703;SDS011;3894;49.700;10.770;2023-03-21T05:46:24;11.02;;;5.63;;
7703;SDS011;3894;49.700;10.770;2023-03-21T05:48:53;20.27;;;6.88;;
7703;SDS011;3894;49.700;10.770;2023-03-21T05:51:19;12.13;;;4.80;;
7703;SDS011;3894;49.700;10.770;2023-03-21T05:53:45;11.80;;;4.68;;
7703;SDS011;3894;49.700;10.770;2023-03-21T05:56:16;8.93;;;3.72;;
7703;SDS011;3894;49.700;10.770;2023-03-21T05:58:42;9.65;;;3.70;;
7703;SDS011;3894;49.700;10.770;2023-03-21T06:01:16;7.20;;;3.28;;
7703;SDS011;3894;49.700;10.770;2023-03-21T06:03:41;9.65;;;3.35;;
7703;SDS011;3894;49.700;10.770;2023-03-21T06:06:07;8.57;;;2.85;;
7703;SDS011;3894;49.700;10.770;2023-03-21T06:08:33;5.80;;;2.17;;
7703;SDS011;3894;49.700;10.770;2023-03-21T06:13:27;9.00;;;3.38;;
7703;SDS011;3894;49.700;10.770;2023-03-21T06:15:58;7.65;;;3.13;;
7703;SDS011;3894;49.700;10.770;2023-03-21T06:18:25;9.15;;;3.65;;
7703;SDS011;3894;49.700;10.770;2023-03-21T06:20:59;8.27;;;4.50;;
7703;SDS011;3894;49.700;10.770;2023-03-21T06:23:28;9.98;;;3.40;;
7703;SDS011;3894;49.700;10.770;2023-03-21T06:25:54;7.93;;;3.55;;
7703;SDS011;3894;49.700;10.770;2023-03-21T06:28:20;8.23;;;3.42;;
7703;SDS011;3894;49.700;10.770;2023-03-21T06:30:46;7.15;;;3.00;;
7703;SDS011;3894;49.700;10.770;2023-03-21T06:33:11;6.45;;;2.30;;
7703;SDS011;3894;49.700;10.770;2023-03-21T06:35:37;7.35;;;2.95;;
7703;SDS011;3894;49.700;10.770;2023-03-21T06:38:06;7.43;;;3.10;;
7703;SDS011;3894;49.700;10.770;2023-03-21T06:40:32;7.95;;;2.95;;
7703;SDS011;3894;49.700;10.770;2023-03-21T06:43:01;10.55;;;2.92;;
7703;SDS011;3894;49.700;10.770;2023-03-21T06:45:26;8.88;;;3.28;;
7703;SDS011;3894;49.700;10.770;2023-03-21T06:47:52;7.72;;;2.85;;
7703;SDS011;3894;49.700;10.770;2023-03-21T06:50:27;7.97;;;2.75;;
7703;SDS011;3894;49.700;10.770;2023-03-21T06:52:53;8.32;;;3.20;;
7703;SDS011;3894;49.700;10.770;2023-03-21T06:55:18;8.88;;;2.72;;
7703;SDS011;3894;49.700;10.770;2023-03-21T06:57:50;10.48;;;3.40;;
7703;SDS011;3894;49.700;10.770;2023-03-21T07:00:26;7.00;;;2.28;;
7703;SDS011;3894;49.700;10.770;2023-03-21T07:02:52;10.52;;;3.70;;
7703;SDS011;3894;49.700;10.770;2023-03-21T07:05:18;9.45;;;4.05;;
7703;SDS011;3894;49.700;10.770;2023-03-21T07:07:47;9.77;;;4.15;;
7703;SDS011;3894;49.700;10.770;2023-03-21T07:10:18;8.20;;;3.70;;
7703;SDS011;3894;49.700;10.770;2023-03-21T07:13:01;9.27;;;4.50;;
7703;SDS011;3894;49.700;10.770;2023-03-21T07:15:27;7.38;;;3.22;;
7703;SDS011;3894;49.700;10.770;2023-03-21T07:17:52;7.78;;;3.10;;
7703;SDS011;3894;49.700;10.770;2023-03-21T07:20:21;8.27;;;3.15;;
7703;SDS011;3894;49.700;10.770;2023-03-21T07:22:57;7.07;;;2.70;;
7703;SDS011;3894;49.700;10.770;2023-03-21T07:25:23;7.70;;;2.63;;
7703;SDS011;3894;49.700;10.770;2023-03-21T07:27:49;6.40;;;2.17;;
7703;SDS011;3894;49.700;10.770;2023-03-21T07:30:15;8.13;;;2.72;;
7703;SDS011;3894;49.700;10.770;2023-03-21T07:32:51;9.20;;;3.75;;
7703;SDS011;3894;49.700;10.770;2023-03-21T07:35:21;7.55;;;2.60;;
7703;SDS011;3894;49.700;10.770;2023-03-21T07:38:06;9.60;;;2.63;;
7703;SDS011;3894;49.700;10.770;2023-03-21T07:40:39;7.63;;;3.60;;
7703;SDS011;3894;49.700;10.770;2023-03-21T07:43:08;10.07;;;3.08;;
7703;SDS011;3894;49.700;10.770;2023-03-21T07:45:34;7.63;;;2.92;;
7703;SDS011;3894;49.700;10.770;2023-03-21T07:48:22;10.40;;;3.78;;
7703;SDS011;3894;49.700;10.770;2023-03-21T07:50:48;8.35;;;3.08;;
7703;SDS011;3894;49.700;10.770;2023-03-21T07:53:24;7.30;;;3.20;;
7703;SDS011;3894;49.700;10.770;2023-03-21T07:55:53;9.15;;;2.63;;
7703;SDS011;3894;49.700;10.770;2023-03-21T08:03:33;9.20;;;3.22;;
7703;SDS011;3894;49.700;10.770;2023-03-21T08:06:02;9.55;;;3.78;;
7703;SDS011;3894;49.700;10.770;2023-03-21T08:08:33;12.23;;;3.60;;
7703;SDS011;3894;49.700;10.770;2023-03-21T08:10:59;8.55;;;3.55;;
7703;SDS011;3894;49.700;10.770;2023-03-21T08:13:29;10.32;;;3.45;;
7703;SDS011;3894;49.700;10.770;2023-03-21T08:15:57;9.20;;;3.15;;
7703;SDS011;3894;49.700;10.770;2023-03-21T08:18:23;10.13;;;3.67;;
7703;SDS011;3894;49.700;10.770;2023-03-21T08:20:53;10.18;;;3.45;;
7703;SDS011;3894;49.700;10.770;2023-03-21T08:23:24;7.28;;;3.45;;
7703;SDS011;3894;49.700;10.770;2023-03-21T08:25:59;10.50;;;3.15;;
7703;SDS011;3894;49.700;10.770;2023-03-21T08:28:30;9.38;;;3.30;;
7703;SDS011;3894;49.700;10.770;2023-03-21T08:31:05;10.23;;;2.90;;
7703;SDS011;3894;49.700;10.770;2023-03-21T08:33:35;9.38;;;3.75;;
7703;SDS011;3894;49.700;10.770;2023-03-21T08:36:01;9.98;;;3.50;;
7703;SDS011;3894;49.700;10.770;2023-03-21T08:38:31;8.48;;;3.22;;
7703;SDS011;3894;49.700;10.770;2023-03-21T08:40:58;8.95;;;2.60;;
7703;SDS011;3894;49.700;10.770;2023-03-21T08:43:27;7.60;;;3.00;;
7703;SDS011;3894;49.700;10.770;2023-03-21T08:46:01;7.10;;;2.28;;
7703;SDS011;3894;49.700;10.770;2023-03-21T08:48:34;6.20;;;2.63;;
7703;SDS011;3894;49.700;10.770;2023-03-21T08:51:11;7.38;;;2.28;;
7703;SDS011;3894;49.700;10.770;2023-03-21T08:53:53;7.50;;;3.15;;
7703;SDS011;3894;49.700;10.770;2023-03-21T08:56:32;8.35;;;2.90;;
7703;SDS011;3894;49.700;10.770;2023-03-21T08:59:04;8.88;;;2.72;;
7703;SDS011;3894;49.700;10.770;2023-03-21T09:01:30;7.88;;;2.67;;
7703;SDS011;3894;49.700;10.770;2023-03-21T09:03:59;8.40;;;2.88;;
7703;SDS011;3894;49.700;10.770;2023-03-21T09:06:34;8.85;;;2.72;;
7703;SDS011;3894;49.700;10.770;2023-03-21T09:08:59;10.07;;;3.20;;
7703;SDS011;3894;49.700;10.770;2023-03-21T09:11:31;7.63;;;2.40;;
7703;SDS011;3894;49.700;10.770;2023-03-21T09:14:06;9.07;;;2.67;;
7703;SDS011;3894;49.700;10.770;2023-03-21T09:16:43;8.77;;;2.97;;
7703;SDS011;3894;49.700;10.770;2023-03-21T09:19:09;9.73;;;3.08;;
7703;SDS011;3894;49.700;10.770;2023-03-21T09:21:35;7.43;;;2.42;;
7703;SDS011;3894;49.700;10.770;2023-03-21T09:24:02;6.97;;;2.35;;
7703;SDS011;3894;49.700;10.770;2023-03-21T09:26:30;7.70;;;2.63;;
7703;SDS011;3894;49.700;10.770;2023-03-21T09:28:56;11.82;;;2.85;;
7703;SDS011;3894;49.700;10.770;2023-03-21T09:31:23;6.45;;;2.42;;
7703;SDS011;3894;49.700;10.770;2023-03-21T09:33:50;6.30;;;1.95;;
7703;SDS011;3894;49.700;10.770;2023-03-21T09:36:25;8.85;;;2.38;;
7703;SDS011;3894;49.700;10.770;2023-03-21T09:38:58;5.25;;;1.90;;
7703;SDS011;3894;49.700;10.770;2023-03-21T09:47:24;7.38;;;1.30;;
7703;SDS011;3894;49.700;10.770;2023-03-21T09:55:35;4.78;;;1.35;;
7703;SDS011;3894;49.700;10.770;2023-03-21T09:58:09;6.68;;;1.73;;
7703;SDS011;3894;49.700;10.770;2023-03-21T10:00:44;5.88;;;2.05;;
7703;SDS011;3894;49.700;10.770;2023-03-21T10:03:24;7.25;;;1.73;;
7703;SDS011;3894;49.700;10.770;2023-03-21T10:06:03;5.82;;;1.45;;
7703;SDS011;3894;49.700;10.770;2023-03-21T10:08:42;5.35;;;1.40;;
7703;SDS011;3894;49.700;10.770;2023-03-21T10:11:12;4.50;;;1.42;;
7703;SDS011;3894;49.700;10.770;2023-03-21T10:13:48;6.13;;;1.63;;
7703;SDS011;3894;49.700;10.770;2023-03-21T10:16:28;6.35;;;1.40;;
7703;SDS011;3894;49.700;10.770;2023-03-21T10:18:59;6.22;;;1.20;;
7703;SDS011;3894;49.700;10.770;2023-03-21T10:21:42;6.25;;;1.52;;
7703;SDS011;3894;49.700;10.770;2023-03-21T10:24:13;7.70;;;1.48;;
7703;SDS011;3894;49.700;10.770;2023-03-21T10:26:45;6.93;;;1.60;;
7703;SDS011;3894;49.700;10.770;2023-03-21T10:29:26;7.38;;;1.73;;
7703;SDS011;3894;49.700;10.770;2023-03-21T10:32:08;6.82;;;1.45;;
7703;SDS011;3894;49.700;10.770;2023-03-21T10:34:38;7.10;;;1.63;;
7703;SDS011;3894;49.700;10.770;2023-03-21T10:37:10;6.65;;;1.45;;
7703;SDS011;3894;49.700;10.770;2023-03-21T10:39:41;6.95;;;1.85;;
7703;SDS011;3894;49.700;10.770;2023-03-21T10:42:17;6.90;;;1.50;;
7703;SDS011;3894;49.700;10.770;2023-03-21T10:44:57;5.47;;;1.70;;
7703;SDS011;3894;49.700;10.770;2023-03-21T10:47:35;6.93;;;1.55;;
7703;SDS011;3894;49.700;10.770;2023-03-21T10:50:12;4.97;;;1.42;;
7703;SDS011;3894;49.700;10.770;2023-03-21T10:52:52;4.97;;;2.00;;
7703;SDS011;3894;49.700;10.770;2023-03-21T10:55:38;7.38;;;1.50;;
7703;SDS011;3894;49.700;10.770;2023-03-21T10:58:09;6.97;;;1.48;;
7703;SDS011;3894;49.700;10.770;2023-03-21T11:00:44;7.35;;;1.73;;
7703;SDS011;3894;49.700;10.770;2023-03-21T11:03:21;4.13;;;1.15;;
7703;SDS011;3894;49.700;10.770;2023-03-21T11:06:36;6.15;;;1.50;;
7703;SDS011;3894;49.700;10.770;2023-03-21T11:09:08;5.97;;;1.90;;
7703;SDS011;3894;49.700;10.770;2023-03-21T11:12:08;5.28;;;1.13;;
7703;SDS011;3894;49.700;10.770;2023-03-21T11:15:30;6.47;;;1.50;;
7703;SDS011;3894;49.700;10.770;2023-03-21T11:18:17;5.82;;;2.10;;
7703;SDS011;3894;49.700;10.770;2023-03-21T11:20:53;7.43;;;1.95;;
7703;SDS011;3894;49.700;10.770;2023-03-21T11:23:30;6.38;;;2.08;;
7703;SDS011;3894;49.700;10.770;2023-03-21T11:26:02;5.93;;;1.75;;
7703;SDS011;3894;49.700;10.770;2023-03-21T11:28:36;5.85;;;1.80;;
7703;SDS011;3894;49.700;10.770;2023-03-21T11:31:05;6.40;;;2.03;;
7703;SDS011;3894;49.700;10.770;2023-03-21T11:34:06;7.72;;;2.00;;
7703;SDS011;3894;49.700;10.770;2023-03-21T11:36:32;5.07;;;1.40;;
7703;SDS011;3894;49.700;10.770;2023-03-21T11:39:13;5.63;;;1.83;;
7703;SDS011;3894;49.700;10.770;2023-03-21T11:41:54;7.40;;;1.85;;
7703;SDS011;3894;49.700;10.770;2023-03-21T11:44:34;6.40;;;2.17;;
7703;SDS011;3894;49.700;10.770;2023-03-21T11:47:09;5.35;;;1.30;;
7703;SDS011;3894;49.700;10.770;2023-03-21T11:49:36;4.68;;;1.23;;
7703;SDS011;3894;49.700;10.770;2023-03-21T11:52:05;6.65;;;1.38;;
7703;SDS011;3894;49.700;10.770;2023-03-21T12:05:55;5.05;;;1.48;;
7703;SDS011;3894;49.700;10.770;2023-03-21T12:08:44;3.35;;;0.85;;
7703;SDS011;3894;49.700;10.770;2023-03-21T12:20:51;5.90;;;0.93;;
7703;SDS011;3894;49.700;10.770;2023-03-21T12:26:35;3.85;;;0.80;;
7703;SDS011;3894;49.700;10.770;2023-03-21T12:31:34;4.78;;;1.00;;
7703;SDS011;3894;49.700;10.770;2023-03-21T12:34:32;3.65;;;0.93;;
7703;SDS011;3894;49.700;10.770;2023-03-21T12:37:09;6.47;;;1.30;;
7703;SDS011;3894;49.700;10.770;2023-03-21T12:39:47;5.22;;;1.30;;
7703;SDS011;3894;49.700;10.770;2023-03-21T12:47:43;5.32;;;1.60;;
7703;SDS011;3894;49.700;10.770;2023-03-21T12:50:21;5.85;;;1.25;;
7703;SDS011;3894;49.700;10.770;2023-03-21T12:52:56;4.65;;;1.40;;
7703;SDS011;3894;49.700;10.770;2023-03-21T12:55:29;5.70;;;1.23;;
7703;SDS011;3894;49.700;10.770;2023-03-21T12:58:04;7.22;;;2.03;;
7703;SDS011;3894;49.700;10.770;2023-03-21T13:00:42;6.32;;;1.27;;
7703;SDS011;3894;49.700;10.770;2023-03-21T13:03:17;6.00;;;1.45;;
7703;SDS011;3894;49.700;10.770;2023-03-21T13:05:56;5.72;;;1.35;;
7703;SDS011;3894;49.700;10.770;2023-03-21T13:11:21;4.97;;;1.15;;
7703;SDS011;3894;49.700;10.770;2023-03-21T13:14:07;5.07;;;1.27;;
7703;SDS011;3894;49.700;10.770;2023-03-21T13:16:56;7.40;;;1.92;;
7703;SDS011;3894;49.700;10.770;2023-03-21T13:19:35;4.10;;;1.10;;
7703;SDS011;3894;49.700;10.770;2023-03-21T13:22:29;5.68;;;1.40;;
7703;SDS011;3894;49.700;10.770;2023-03-21T13:28:00;5.05;;;1.20;;
7703;SDS011;3894;49.700;10.770;2023-03-21T13:30:28;4.43;;;1.05;;
7703;SDS011;3894;49.700;10.770;2023-03-21T13:33:06;4.72;;;1.98;;
7703;SDS011;3894;49.700;10.770;2023-03-21T13:35:37;3.75;;;1.00;;
7703;SDS011;3894;49.700;10.770;2023-03-21T13:38:19;6.28;;;1.45;;
7703;SDS011;3894;49.700;10.770;2023-03-21T13:40:50;5.40;;;1.67;;
7703;SDS011;3894;49.700;10.770;2023-03-21T13:53:59;6.25;;;1.23;;
7703;SDS011;3894;49.700;10.770;2023-03-21T13:59:09;5.22;;;1.30;;
7703;SDS011;3894;49.700;10.770;2023-03-21T14:01:37;5.63;;;2.05;;
7703;SDS011;3894;49.700;10.770;2023-03-21T14:04:25;5.00;;;1.30;;
7703;SDS011;3894;49.700;10.770;2023-03-21T14:07:07;5.38;;;1.27;;
7703;SDS011;3894;49.700;10.770;2023-03-21T14:09:45;4.45;;;1.63;;
7703;SDS011;3894;49.700;10.770;2023-03-21T14:12:14;6.38;;;2.40;;
7703;SDS011;3894;49.700;10.770;2023-03-21T14:14:46;5.05;;;1.55;;
7703;SDS011;3894;49.700;10.770;2023-03-21T14:17:23;8.30;;;2.25;;
7703;SDS011;3894;49.700;10.770;2023-03-21T14:20:14;7.45;;;1.88;;
7703;SDS011;3894;49.700;10.770;2023-03-21T14:22:51;6.00;;;1.70;;
7703;SDS011;3894;49.700;10.770;2023-03-21T14:25:21;4.80;;;1.85;;
7703;SDS011;3894;49.700;10.770;2023-03-21T14:27:53;6.38;;;1.60;;
7703;SDS011;3894;49.700;10.770;2023-03-21T14:30:29;7.93;;;2.05;;
7703;SDS011;3894;49.700;10.770;2023-03-21T14:33:15;7.68;;;1.70;;
7703;SDS011;3894;49.700;10.770;2023-03-21T14:35:47;4.68;;;1.65;;
7703;SDS011;3894;49.700;10.770;2023-03-21T14:38:21;9.70;;;2.17;;
7703;SDS011;3894;49.700;10.770;2023-03-21T14:40:49;7.72;;;2.30;;
7703;SDS011;3894;49.700;10.770;2023-03-21T14:43:20;7.47;;;2.22;;
7703;SDS011;3894;49.700;10.770;2023-03-21T14:45:48;5.90;;;1.38;;
7703;SDS011;3894;49.700;10.770;2023-03-21T14:48:19;4.88;;;1.27;;
7703;SDS011;3894;49.700;10.770;2023-03-21T14:50:52;5.25;;;1.55;;
7703;SDS011;3894;49.700;10.770;2023-03-21T14:53:21;4.82;;;1.50;;
7703;SDS011;3894;49.700;10.770;2023-03-21T14:58:36;8.57;;;2.20;;
7703;SDS011;3894;49.700;10.770;2023-03-21T15:01:04;4.38;;;1.80;;
7703;SDS011;3894;49.700;10.770;2023-03-21T15:03:32;4.88;;;1.40;;
7703;SDS011;3894;49.700;10.770;2023-03-21T15:05:58;5.05;;;1.77;;
7703;SDS011;3894;49.700;10.770;2023-03-21T15:08:31;5.55;;;1.75;;
7703;SDS011;3894;49.700;10.770;2023-03-21T15:10:57;5.70;;;1.27;;
7703;SDS011;3894;49.700;10.770;2023-03-21T15:13:29;9.75;;;3.83;;
7703;SDS011;3894;49.700;10.770;2023-03-21T15:15:58;16.45;;;5.90;;
7703;SDS011;3894;49.700;10.770;2023-03-21T15:18:29;10.20;;;3.78;;
7703;SDS011;3894;49.700;10.770;2023-03-21T15:20:57;15.55;;;5.82;;
7703;SDS011;3894;49.700;10.770;2023-03-21T15:23:40;7.97;;;3.00;;
7703;SDS011;3894;49.700;10.770;2023-03-21T15:26:18;6.82;;;2.33;;
7703;SDS011;3894;49.700;10.770;2023-03-21T15:28:46;6.35;;;2.35;;
7703;SDS011;3894;49.700;10.770;2023-03-21T15:31:17;7.80;;;2.28;;
7703;SDS011;3894;49.700;10.770;2023-03-21T15:33:48;5.82;;;1.58;;
7703;SDS011;3894;49.700;10.770;2023-03-21T15:36:24;5.78;;;1.65;;
7703;SDS011;3894;49.700;10.770;2023-03-21T15:39:11;7.13;;;1.92;;
7703;SDS011;3894;49.700;10.770;2023-03-21T15:41:39;6.72;;;1.60;;
7703;SDS011;3894;49.700;10.770;2023-03-21T15:46:33;9.43;;;3.15;;
7703;SDS011;3894;49.700;10.770;2023-03-21T15:51:32;6.22;;;1.83;;
7703;SDS011;3894;49.700;10.770;2023-03-21T15:53:58;6.07;;;2.50;;
7703;SDS011;3894;49.700;10.770;2023-03-21T15:56:26;5.22;;;1.85;;
7703;SDS011;3894;49.700;10.770;2023-03-21T15:58:58;4.90;;;1.15;;
7703;SDS011;3894;49.700;10.770;2023-03-21T16:01:29;4.70;;;1.50;;
7703;SDS011;3894;49.700;10.770;2023-03-21T16:04:05;6.82;;;1.80;;
7703;SDS011;3894;49.700;10.770;2023-03-21T16:06:37;4.63;;;1.90;;
7703;SDS011;3894;49.700;10.770;2023-03-21T16:11:51;6.18;;;1.40;;
7703;SDS011;3894;49.700;10.770;2023-03-21T16:14:18;5.47;;;1.58;;
7703;SDS011;3894;49.700;10.770;2023-03-21T16:16:45;10.07;;;3.20;;
7703;SDS011;3894;49.700;10.770;2023-03-21T16:19:11;10.23;;;2.63;;
7703;SDS011;3894;49.700;10.770;2023-03-21T16:21:38;11.93;;;4.18;;
7703;SDS011;3894;49.700;10.770;2023-03-21T16:24:04;8.57;;;3.28;;
7703;SDS011;3894;49.700;10.770;2023-03-21T16:26:32;5.93;;;2.22;;
7703;SDS011;3894;49.700;10.770;2023-03-21T16:29:01;10.32;;;3.88;;
7703;SDS011;3894;49.700;10.770;2023-03-21T16:31:28;11.35;;;3.33;;
7703;SDS011;3894;49.700;10.770;2023-03-21T16:33:56;9.18;;;3.20;;
7703;SDS011;3894;49.700;10.770;2023-03-21T16:36:23;8.05;;;3.55;;
7703;SDS011;3894;49.700;10.770;2023-03-21T16:39:14;8.07;;;3.10;;
7703;SDS011;3894;49.700;10.770;2023-03-21T16:41:47;11.65;;;4.25;;
7703;SDS011;3894;49.700;10.770;2023-03-21T16:44:14;16.48;;;6.13;;
7703;SDS011;3894;49.700;10.770;2023-03-21T16:46:40;14.43;;;4.85;;
7703;SDS011;3894;49.700;10.770;2023-03-21T16:49:05;12.15;;;5.13;;
7703;SDS011;3894;49.700;10.770;2023-03-21T16:51:42;12.32;;;3.72;;
7703;SDS011;3894;49.700;10.770;2023-03-21T16:54:07;9.93;;;3.95;;
7703;SDS011;3894;49.700;10.770;2023-03-21T16:56:49;10.30;;;3.42;;
7703;SDS011;3894;49.700;10.770;2023-03-21T16:59:17;7.10;;;2.53;;
7703;SDS011;3894;49.700;10.770;2023-03-21T17:01:43;7.28;;;3.35;;
7703;SDS011;3894;49.700;10.770;2023-03-21T17:04:12;17.52;;;6.55;;
7703;SDS011;3894;49.700;10.770;2023-03-21T17:06:42;13.85;;;7.50;;
7703;SDS011;3894;49.700;10.770;2023-03-21T17:09:11;12.00;;;5.53;;
7703;SDS011;3894;49.700;10.770;2023-03-21T17:11:38;10.25;;;4.68;;
7703;SDS011;3894;49.700;10.770;2023-03-21T17:14:05;6.53;;;2.88;;
7703;SDS011;3894;49.700;10.770;2023-03-21T17:16:32;6.95;;;3.67;;
7703;SDS011;3894;49.700;10.770;2023-03-21T17:18:58;11.85;;;6.85;;
7703;SDS011;3894;49.700;10.770;2023-03-21T17:21:28;9.00;;;4.00;;
7703;SDS011;3894;49.700;10.770;2023-03-21T17:23:54;11.38;;;6.75;;
7703;SDS011;3894;49.700;10.770;2023-03-21T17:26:21;9.82;;;4.65;;
7703;SDS011;3894;49.700;10.770;2023-03-21T17:28:51;10.15;;;4.95;;
7703;SDS011;3894;49.700;10.770;2023-03-21T17:31:18;11.07;;;6.68;;
7703;SDS011;3894;49.700;10.770;2023-03-21T17:33:45;12.05;;;6.90;;
7703;SDS011;3894;49.700;10.770;2023-03-21T17:36:16;9.73;;;5.10;;
7703;SDS011;3894;49.700;10.770;2023-03-21T17:38:50;11.10;;;7.72;;
7703;SDS011;3894;49.700;10.770;2023-03-21T17:41:17;13.55;;;11.35;;
7703;SDS011;3894;49.700;10.770;2023-03-21T17:43:43;10.40;;;5.63;;
7703;SDS011;3894;49.700;10.770;2023-03-21T17:46:13;9.25;;;3.80;;
7703;SDS011;3894;49.700;10.770;2023-03-21T17:48:40;8.07;;;3.92;;
7703;SDS011;3894;49.700;10.770;2023-03-21T17:51:13;8.52;;;3.92;;
7703;SDS011;3894;49.700;10.770;2023-03-21T17:53:58;7.45;;;3.85;;
7703;SDS011;3894;49.700;10.770;2023-03-21T17:56:26;11.65;;;6.00;;
7703;SDS011;3894;49.700;10.770;2023-03-21T17:58:58;10.60;;;5.47;;
7703;SDS011;3894;49.700;10.770;2023-03-21T18:01:25;8.38;;;4.07;;
7703;SDS011;3894;49.700;10.770;2023-03-21T18:03:52;11.57;;;5.00;;
7703;SDS011;3894;49.700;10.770;2023-03-21T18:06:21;9.23;;;3.55;;
7703;SDS011;3894;49.700;10.770;2023-03-21T18:08:48;9.43;;;3.55;;
7703;SDS011;3894;49.700;10.770;2023-03-21T18:11:16;8.60;;;3.22;;
7703;SDS011;3894;49.700;10.770;2023-03-21T18:13:43;7.82;;;3.03;;
7703;SDS011;3894;49.700;10.770;2023-03-21T18:16:11;7.53;;;3.58;;
7703;SDS011;3894;49.700;10.770;2023-03-21T18:18:57;14.48;;;6.43;;
7703;SDS011;3894;49.700;10.770;2023-03-21T18:21:23;11.60;;;4.50;;
7703;SDS011;3894;49.700;10.770;2023-03-21T18:23:49;8.98;;;4.45;;
7703;SDS011;3894;49.700;10.770;2023-03-21T18:26:16;7.70;;;3.65;;
7703;SDS011;3894;49.700;10.770;2023-03-21T18:28:43;9.00;;;4.68;;
7703;SDS011;3894;49.700;10.770;2023-03-21T18:31:14;9.65;;;4.85;;
7703;SDS011;3894;49.700;10.770;2023-03-21T18:33:41;10.80;;;4.45;;
7703;SDS011;3894;49.700;10.770;2023-03-21T18:36:09;8.63;;;4.13;;
7703;SDS011;3894;49.700;10.770;2023-03-21T18:38:37;9.23;;;4.05;;
7703;SDS011;3894;49.700;10.770;2023-03-21T18:41:03;11.73;;;4.82;;
7703;SDS011;3894;49.700;10.770;2023-03-21T18:43:30;11.88;;;5.82;;